Time;durP1;ratioP1;P1;durP2;ratioP2;P2;SDS_P1;SDS_P2;PMS_P1;PMS_P2;Temp;Humidity;BMP_temperature;BMP_pressure;BME280_temperature;BME280_humidity;BME280_pressure;Samples;Min_cycle;Max_cycle;Signal;HPM_P1;HPM_P2
2023/05/24 00:01:42;;;;;;;16.73;6.05;;;;;;;;;;4876038;29;20100;-64
2023/05/24 00:04:13;;;;;;;16.45;5.60;;;;;;;;;;4875193;29;20048;-63
2023/05/24 00:06:45;;;;;;;14.88;6.90;;;;;;;;;;4829546;29;20088;-63
2023/05/24 00:09:16;;;;;;;15.18;6.20;;;;;;;;;;4898733;29;20067;-65
2023/05/24 00:11:48;;;;;;;11.77;5.65;;;;;;;;;;4916014;29;20063;-63
2023/05/24 00:14:19;;;;;;;16.02;5.75;;;;;;;;;;4900457;29;20060;-63
2023/05/24 00:16:50;;;;;;;;;;;;;;;;;;4944081;29;20055;-63
2023/05/24 00:19:21;;;;;;;12.20;5.05;;;;;;;;;;4951136;29;19922;-64
2023/05/24 00:21:55;;;;;;;14.68;4.63;;;;;;;;;;4951067;29;20155;-63
2023/05/24 00:24:26;;;;;;;14.10;5.93;;;;;;;;;;4958605;28;20050;-63
2023/05/24 00:26:57;;;;;;;12.02;6.50;;;;;;;;;;4967021;28;20058;-64
2023/05/24 00:29:30;;;;;;;14.30;5.78;;;;;;;;;;4912189;29;20056;-64
2023/05/24 00:32:03;;;;;;;15.65;5.43;;;;;;;;;;4912446;29;20052;-63
2023/05/24 00:34:34;;;;;;;12.52;5.22;;;;;;;;;;4896597;29;20509;-63
2023/05/24 00:37:08;;;;;;;10.85;5.13;;;;;;;;;;4895297;29;20048;-64
2023/05/24 00:39:41;;;;;;;12.82;5.93;;;;;;;;;;4919075;29;20051;-66
2023/05/24 00:42:12;;;;;;;12.02;4.65;;;;;;;;;;4924397;29;20059;-63
2023/05/24 00:44:45;;;;;;;10.15;4.60;;;;;;;;;;4939490;29;20055;-63
2023/05/24 00:47:39;;;;;;;10.45;4.47;;;;;;;;;;4954154;28;20050;-63
2023/05/24 00:50:13;;;;;;;11.90;4.60;;;;;;;;;;4938259;28;20059;-63
2023/05/24 00:52:46;;;;;;;12.70;4.72;;;;;;;;;;4909255;29;20052;-63
2023/05/24 00:55:20;;;;;;;10.43;4.25;;;;;;;;;;4898552;29;20528;-62
2023/05/24 00:57:53;;;;;;;10.48;4.88;;;;;;;;;;4882525;29;20068;-62
2023/05/24 01:00:26;;;;;;;10.70;4.72;;;;;;;;;;4884722;29;20060;-63
2023/05/24 01:02:59;;;;;;;8.52;4.22;;;;;;;;;;4893459;29;20056;-64
2023/05/24 01:05:31;;;;;;;10.07;5.15;;;;;;;;;;4893396;29;20087;-62
2023/05/24 01:08:13;;;;;;;;;;;;;;;;;;4866139;29;20045;-62
2023/05/24 01:10:56;;;;;;;13.82;4.90;;;;;;;;;;4881604;29;19927;-62
2023/05/24 01:13:48;;;;;;;11.23;5.38;;;;;;;;;;4897663;29;20127;-63
2023/05/24 01:16:33;;;;;;;;;;;;;;;;;;4879374;29;20053;-63
2023/05/24 01:19:42;;;;;;;10.30;4.57;;;;;;;;;;4877848;29;19928;-62
2023/05/24 01:22:18;;;;;;;17.35;4.95;;;;;;;;;;4804308;29;20051;-64
2023/05/24 01:25:18;;;;;;;13.07;5.20;;;;;;;;;;4804727;29;20681;-64
2023/05/24 01:27:50;;;;;;;12.85;4.93;;;;;;;;;;4788993;29;20059;-63
2023/05/24 01:30:21;;;;;;;13.30;5.05;;;;;;;;;;4804344;29;20050;-64
2023/05/24 01:32:52;;;;;;;12.73;4.72;;;;;;;;;;4805083;29;20073;-63
2023/05/24 01:35:24;;;;;;;9.77;4.53;;;;;;;;;;4805934;29;20074;-62
2023/05/24 01:37:55;;;;;;;13.73;5.18;;;;;;;;;;4829906;29;20057;-62
2023/05/24 01:40:25;;;;;;;9.95;4.57;;;;;;;;;;4810585;29;20061;-64
2023/05/24 01:43:05;;;;;;;10.88;4.05;;;;;;;;;;4855515;29;20062;-63
2023/05/24 01:46:06;;;;;;;9.70;4.45;;;;;;;;;;4855468;29;20439;-63
2023/05/24 01:48:42;;;;;;;9.82;4.28;;;;;;;;;;4825342;29;20073;-62
2023/05/24 01:51:20;;;;;;;11.10;5.15;;;;;;;;;;4840810;29;20062;-63
2023/05/24 01:53:52;;;;;;;13.85;4.72;;;;;;;;;;4856053;29;20057;-63
2023/05/24 01:56:23;;;;;;;11.25;4.82;;;;;;;;;;4840787;29;20072;-63
2023/05/24 01:58:55;;;;;;;;;;;;;;;;;;4871646;29;20059;-63
2023/05/24 02:01:28;;;;;;;14.77;5.35;;;;;;;;;;4937150;28;19922;-63
2023/05/24 02:03:59;;;;;;;10.95;4.88;;;;;;;;;;4956963;28;20510;-64
2023/05/24 02:06:29;;;;;;;9.02;4.93;;;;;;;;;;4924775;28;20054;-65
2023/05/24 02:09:00;;;;;;;9.48;4.88;;;;;;;;;;4899016;29;20438;-62
2023/05/24 02:11:32;;;;;;;10.85;4.72;;;;;;;;;;4899483;29;20060;-62
2023/05/24 02:14:02;;;;;;;12.23;4.93;;;;;;;;;;4868193;29;20154;-63
2023/05/24 02:16:33;;;;;;;10.35;4.88;;;;;;;;;;4901575;29;20509;-63
2023/05/24 02:19:03;;;;;;;11.80;4.75;;;;;;;;;;4895478;29;20474;-62
2023/05/24 02:21:33;;;;;;;10.55;4.80;;;;;;;;;;4864811;29;20052;-65
2023/05/24 02:24:05;;;;;;;12.13;5.05;;;;;;;;;;4896287;29;20064;-62
2023/05/24 02:26:36;;;;;;;10.95;4.70;;;;;;;;;;4876837;29;20488;-62
2023/05/24 02:29:07;;;;;;;9.15;4.93;;;;;;;;;;4877264;29;20065;-63
2023/05/24 02:31:38;;;;;;;10.15;5.53;;;;;;;;;;4877169;29;20061;-64
2023/05/24 02:34:08;;;;;;;14.48;5.20;;;;;;;;;;4892343;29;20055;-63
2023/05/24 02:36:39;;;;;;;9.77;5.20;;;;;;;;;;4877079;29;20068;-63
2023/05/24 02:39:09;;;;;;;14.23;4.95;;;;;;;;;;4876877;29;20064;-65
2023/05/24 02:41:40;;;;;;;10.82;5.13;;;;;;;;;;4876995;29;20053;-63
2023/05/24 02:44:11;;;;;;;13.95;5.65;;;;;;;;;;4876968;29;20756;-63
2023/05/24 02:46:41;;;;;;;9.93;4.72;;;;;;;;;;4934588;28;20047;-64
2023/05/24 02:49:15;;;;;;;10.40;5.38;;;;;;;;;;4952519;28;20055;-63
2023/05/24 02:51:45;;;;;;;11.00;5.45;;;;;;;;;;4952575;28;20055;-62
2023/05/24 02:54:16;;;;;;;11.02;5.32;;;;;;;;;;4889809;28;20510;-62
2023/05/24 02:56:46;;;;;;;14.50;5.10;;;;;;;;;;4942038;28;20063;-65
2023/05/24 02:59:17;;;;;;;10.80;5.75;;;;;;;;;;4933319;29;20424;-62
2023/05/24 03:01:49;;;;;;;16.02;5.65;;;;;;;;;;4933089;29;20500;-61
2023/05/24 03:04:19;;;;;;;10.90;6.15;;;;;;;;;;4948839;28;20055;-64
2023/05/24 03:06:49;;;;;;;16.40;6.15;;;;;;;;;;4970284;28;20526;-63
2023/05/24 03:09:20;;;;;;;13.05;6.18;;;;;;;;;;4951341;29;20443;-62
2023/05/24 03:11:53;;;;;;;13.35;6.00;;;;;;;;;;4916972;29;20059;-63
2023/05/24 03:14:23;;;;;;;;;;;;;;;;;;4879461;29;20468;-63
2023/05/24 03:16:54;;;;;;;12.10;5.45;;;;;;;;;;4894951;29;19923;-63
2023/05/24 03:19:24;;;;;;;13.00;5.57;;;;;;;;;;4894570;29;20045;-63
2023/05/24 03:21:55;;;;;;;12.43;5.32;;;;;;;;;;4838820;29;20058;-62
2023/05/24 03:24:25;;;;;;;15.85;5.65;;;;;;;;;;4820646;29;20058;-65
2023/05/24 03:26:57;;;;;;;13.52;5.30;;;;;;;;;;4798402;29;20051;-64
2023/05/24 03:29:28;;;;;;;10.35;5.00;;;;;;;;;;4801861;29;20723;-62
2023/05/24 03:31:58;;;;;;;13.50;5.13;;;;;;;;;;4820320;29;20069;-63
2023/05/24 03:34:29;;;;;;;15.60;6.25;;;;;;;;;;4821012;29;20059;-63
2023/05/24 03:36:59;;;;;;;15.90;5.90;;;;;;;;;;4778545;29;20063;-63
2023/05/24 03:39:30;;;;;;;16.38;5.55;;;;;;;;;;4802261;29;20058;-63
2023/05/24 03:42:21;;;;;;;11.38;5.30;;;;;;;;;;4802116;29;20058;-63
2023/05/24 03:44:52;;;;;;;13.05;5.50;;;;;;;;;;4783649;29;20101;-63
2023/05/24 03:47:23;;;;;;;11.93;6.00;;;;;;;;;;4790229;29;20058;-63
2023/05/24 03:49:53;;;;;;;12.88;5.93;;;;;;;;;;4730786;30;20052;-64
2023/05/24 03:52:24;;;;;;;14.02;5.60;;;;;;;;;;4770884;29;20059;-63
2023/05/24 03:54:54;;;;;;;14.05;5.90;;;;;;;;;;4754017;29;20058;-65
2023/05/24 03:57:24;;;;;;;11.82;5.63;;;;;;;;;;4795532;29;20067;-63
2023/05/24 03:59:55;;;;;;;16.10;5.40;;;;;;;;;;4790742;29;20051;-63
2023/05/24 04:02:26;;;;;;;19.20;5.80;;;;;;;;;;4820026;29;20054;-63
2023/05/24 04:04:57;;;;;;;11.50;5.82;;;;;;;;;;4808750;29;20066;-63
2023/05/24 04:07:32;;;;;;;13.18;5.72;;;;;;;;;;4813569;29;20069;-63
2023/05/24 04:10:06;;;;;;;16.27;6.55;;;;;;;;;;4871996;29;20048;-63
2023/05/24 04:12:38;;;;;;;11.32;5.97;;;;;;;;;;4893706;29;20533;-63
2023/05/24 04:15:13;;;;;;;13.18;6.50;;;;;;;;;;4912523;29;20056;-65
2023/05/24 04:17:45;;;;;;;12.27;6.22;;;;;;;;;;4893434;29;20056;-65
2023/05/24 04:20:16;;;;;;;12.52;6.15;;;;;;;;;;4890847;29;20056;-65
2023/05/24 04:22:46;;;;;;;12.63;6.10;;;;;;;;;;4853439;29;20061;-61
2023/05/24 04:25:17;;;;;;;16.33;6.32;;;;;;;;;;4896941;29;20048;-63
2023/05/24 04:27:49;;;;;;;12.75;6.22;;;;;;;;;;4912472;29;20067;-62
2023/05/24 04:30:20;;;;;;;12.05;5.70;;;;;;;;;;4858922;29;20731;-63
2023/05/24 04:32:52;;;;;;;16.60;6.63;;;;;;;;;;4893302;29;20067;-63
2023/05/24 04:35:27;;;;;;;12.82;6.30;;;;;;;;;;4855933;29;20058;-63
2023/05/24 04:37:58;;;;;;;11.52;5.70;;;;;;;;;;4893235;29;20144;-63
2023/05/24 04:40:29;;;;;;;11.95;6.03;;;;;;;;;;4881468;29;20135;-63
2023/05/24 04:42:59;;;;;;;11.38;4.85;;;;;;;;;;4874782;29;20057;-63
2023/05/24 04:45:31;;;;;;;13.73;5.38;;;;;;;;;;4874931;29;20060;-64
2023/05/24 04:48:02;;;;;;;12.45;5.40;;;;;;;;;;4851620;29;20058;-63
2023/05/24 04:50:34;;;;;;;17.33;6.18;;;;;;;;;;4852350;29;20427;-62
2023/05/24 04:53:04;;;;;;;15.02;6.10;;;;;;;;;;4848535;29;20061;-63
2023/05/24 04:55:34;;;;;;;13.40;6.22;;;;;;;;;;4866975;29;20064;-63
2023/05/24 04:58:05;;;;;;;13.27;6.65;;;;;;;;;;4874852;29;20110;-63
2023/05/24 05:00:36;;;;;;;16.20;6.85;;;;;;;;;;4874771;29;20060;-63
2023/05/24 05:03:07;;;;;;;12.35;5.97;;;;;;;;;;4885306;29;20444;-63
2023/05/24 05:05:37;;;;;;;12.02;6.10;;;;;;;;;;4893413;29;20060;-64
2023/05/24 05:08:08;;;;;;;14.13;6.00;;;;;;;;;;4903947;29;20071;-63
2023/05/24 05:10:38;;;;;;;12.00;5.88;;;;;;;;;;4896911;29;20068;-64
2023/05/24 05:13:09;;;;;;;13.02;5.90;;;;;;;;;;4865858;29;20059;-64
2023/05/24 05:15:40;;;;;;;12.05;5.97;;;;;;;;;;4928974;28;20047;-63
2023/05/24 05:18:11;;;;;;;14.23;6.82;;;;;;;;;;4969298;28;20054;-63
2023/05/24 05:20:41;;;;;;;13.80;6.13;;;;;;;;;;4950154;29;20647;-63
2023/05/24 05:23:12;;;;;;;13.70;6.95;;;;;;;;;;4960209;28;20067;-63
2023/05/24 05:25:42;;;;;;;12.43;5.90;;;;;;;;;;4933903;29;20464;-64
2023/05/24 05:28:14;;;;;;;11.18;5.80;;;;;;;;;;4934677;29;20063;-63
2023/05/24 05:30:44;;;;;;;15.10;5.82;;;;;;;;;;4918401;29;20066;-63
2023/05/24 05:33:15;;;;;;;13.68;6.22;;;;;;;;;;4950404;29;20078;-63
2023/05/24 05:35:46;;;;;;;11.93;6.13;;;;;;;;;;4950040;29;20385;-63
2023/05/24 05:38:16;;;;;;;13.88;5.88;;;;;;;;;;4950067;29;20067;-63
2023/05/24 05:40:46;;;;;;;12.30;5.63;;;;;;;;;;4872588;29;20047;-63
2023/05/24 05:43:16;;;;;;;11.13;5.43;;;;;;;;;;4949970;29;20070;-64
2023/05/24 05:45:47;;;;;;;12.43;5.20;;;;;;;;;;4950107;29;20059;-63
2023/05/24 05:48:17;;;;;;;12.00;6.00;;;;;;;;;;4917888;29;20058;-64
2023/05/24 05:50:47;;;;;;;10.45;5.43;;;;;;;;;;4950072;29;20063;-63
2023/05/24 05:53:18;;;;;;;11.80;5.60;;;;;;;;;;4921023;29;20062;-64
2023/05/24 05:55:48;;;;;;;14.43;5.53;;;;;;;;;;4930897;28;20082;-64
2023/05/24 05:58:18;;;;;;;11.18;5.93;;;;;;;;;;4949972;28;20054;-64
2023/05/24 06:00:50;;;;;;;14.07;6.63;;;;;;;;;;4959626;28;20057;-61
2023/05/24 06:03:20;;;;;;;15.70;6.20;;;;;;;;;;4906172;28;20045;-62
2023/05/24 06:05:50;;;;;;;13.80;5.80;;;;;;;;;;4995735;28;20502;-64
2023/05/24 06:08:21;;;;;;;12.23;6.05;;;;;;;;;;5013887;28;20070;-64
2023/05/24 06:10:51;;;;;;;11.73;5.97;;;;;;;;;;5014033;28;20049;-64
2023/05/24 06:13:21;;;;;;;13.65;5.78;;;;;;;;;;5014175;28;20391;-64
2023/05/24 06:15:54;;;;;;;11.38;5.75;;;;;;;;;;5013787;28;20096;-65
2023/05/24 06:18:26;;;;;;;12.75;5.70;;;;;;;;;;5013750;28;20045;-63
2023/05/24 06:20:56;;;;;;;13.15;5.70;;;;;;;;;;4979170;28;20062;-64
2023/05/24 06:23:27;;;;;;;14.40;6.25;;;;;;;;;;5013612;28;20046;-62
2023/05/24 06:25:57;;;;;;;12.30;6.10;;;;;;;;;;5013753;28;20046;-61
2023/05/24 06:28:27;;;;;;;15.82;6.32;;;;;;;;;;5013533;28;20506;-63
2023/05/24 06:30:58;;;;;;;13.45;6.43;;;;;;;;;;5013640;28;20052;-63
2023/05/24 06:33:28;;;;;;;12.48;6.68;;;;;;;;;;4964126;28;20057;-64
2023/05/24 06:35:58;;;;;;;14.32;5.57;;;;;;;;;;4979580;28;20061;-63
2023/05/24 06:38:31;;;;;;;11.65;5.10;;;;;;;;;;5013557;28;20056;-64
2023/05/24 06:41:02;;;;;;;10.77;6.15;;;;;;;;;;4995661;28;20049;-62
2023/05/24 06:43:32;;;;;;;12.65;6.00;;;;;;;;;;5013224;28;20046;-69
2023/05/24 06:46:02;;;;;;;11.90;5.80;;;;;;;;;;4979055;28;20521;-64
2023/05/24 06:48:32;;;;;;;12.43;5.50;;;;;;;;;;5013491;28;20057;-63
2023/05/24 06:51:03;;;;;;;12.77;6.32;;;;;;;;;;4978532;28;20053;-62
2023/05/24 06:53:33;;;;;;;13.68;6.10;;;;;;;;;;4978660;28;20054;-66
2023/05/24 06:56:04;;;;;;;13.38;5.90;;;;;;;;;;5013243;28;20053;-63
2023/05/24 06:58:35;;;;;;;13.07;5.85;;;;;;;;;;4962361;28;20494;-62
2023/05/24 07:01:05;;;;;;;13.57;5.40;;;;;;;;;;4978307;28;20058;-62
2023/05/24 07:03:36;;;;;;;14.90;5.65;;;;;;;;;;4977319;28;20083;-63
2023/05/24 07:06:08;;;;;;;14.65;5.30;;;;;;;;;;4978166;28;20050;-62
2023/05/24 07:08:40;;;;;;;15.82;5.30;;;;;;;;;;4994591;28;20061;-62
2023/05/24 07:11:10;;;;;;;10.40;5.13;;;;;;;;;;4946156;28;20049;-63
2023/05/24 07:13:41;;;;;;;10.10;4.90;;;;;;;;;;4963752;28;20065;-62
2023/05/24 07:16:11;;;;;;;10.82;5.35;;;;;;;;;;4978224;28;20064;-62
2023/05/24 07:18:41;;;;;;;11.23;5.18;;;;;;;;;;5012811;28;20057;-63
2023/05/24 07:21:12;;;;;;;14.35;5.13;;;;;;;;;;4961961;28;20065;-65
2023/05/24 07:23:43;;;;;;;13.77;4.97;;;;;;;;;;5013001;28;20056;-62
2023/05/24 07:26:13;;;;;;;11.85;5.20;;;;;;;;;;4994476;28;20069;-63
2023/05/24 07:28:44;;;;;;;10.48;4.75;;;;;;;;;;4977706;28;20104;-62
2023/05/24 07:31:15;;;;;;;14.63;5.47;;;;;;;;;;5012376;28;20458;-62
2023/05/24 07:33:45;;;;;;;12.55;4.90;;;;;;;;;;4978077;28;20421;-63
2023/05/24 07:36:16;;;;;;;14.77;5.15;;;;;;;;;;4970604;28;20051;-62
2023/05/24 07:38:46;;;;;;;10.65;5.30;;;;;;;;;;4908500;28;20522;-64
2023/05/24 07:41:17;;;;;;;12.02;5.13;;;;;;;;;;4970806;28;20569;-62
2023/05/24 07:43:48;;;;;;;11.93;4.80;;;;;;;;;;4955223;28;20050;-62
2023/05/24 07:46:18;;;;;;;9.82;5.22;;;;;;;;;;4938808;28;20054;-64
2023/05/24 07:48:48;;;;;;;13.90;4.75;;;;;;;;;;4971052;28;20063;-63
2023/05/24 07:51:20;;;;;;;15.57;4.88;;;;;;;;;;4924358;28;20074;-62
2023/05/24 07:53:50;;;;;;;9.98;4.93;;;;;;;;;;4938664;28;20353;-63
2023/05/24 07:56:20;;;;;;;9.63;5.18;;;;;;;;;;4970687;28;20073;-62
2023/05/24 07:58:51;;;;;;;11.48;5.15;;;;;;;;;;4970839;28;20051;-63
2023/05/24 08:01:22;;;;;;;11.55;4.93;;;;;;;;;;4938328;28;20055;-62
2023/05/24 08:03:52;;;;;;;12.60;4.68;;;;;;;;;;4970515;28;20051;-64
2023/05/24 08:06:23;;;;;;;9.48;4.78;;;;;;;;;;4954250;28;20051;-62
2023/05/24 08:08:53;;;;;;;12.57;4.80;;;;;;;;;;4907308;28;20059;-64
2023/05/24 08:11:24;;;;;;;11.98;5.35;;;;;;;;;;4907009;28;20581;-62
2023/05/24 08:14:07;;;;;;;9.45;5.47;;;;;;;;;;4951496;28;20069;-62
2023/05/24 08:16:37;;;;;;;12.55;5.18;;;;;;;;;;4960740;28;20064;-65
2023/05/24 08:19:34;;;;;;;11.95;5.05;;;;;;;;;;4989709;28;20057;-63
2023/05/24 08:22:06;;;;;;;13.25;5.53;;;;;;;;;;4984874;28;20058;-63
2023/05/24 08:24:36;;;;;;;11.60;5.60;;;;;;;;;;4941308;28;20070;-63
2023/05/24 08:27:07;;;;;;;13.27;5.43;;;;;;;;;;4989729;28;20057;-62
2023/05/24 08:29:45;;;;;;;10.88;5.57;;;;;;;;;;4989491;28;20047;-63
2023/05/24 08:32:15;;;;;;;12.93;5.35;;;;;;;;;;4989357;28;20058;-63
2023/05/24 08:34:46;;;;;;;14.25;5.93;;;;;;;;;;4989522;28;20053;-62
2023/05/24 08:37:35;;;;;;;12.90;5.20;;;;;;;;;;4956837;28;20526;-62
2023/05/24 08:40:08;;;;;;;10.25;5.13;;;;;;;;;;4957008;28;20410;-64
2023/05/24 08:42:41;;;;;;;10.82;5.38;;;;;;;;;;4989392;28;20050;-65
2023/05/24 08:45:13;;;;;;;11.25;5.05;;;;;;;;;;4989283;28;20065;-62
2023/05/24 08:47:45;;;;;;;10.77;4.70;;;;;;;;;;4941191;28;20057;-62
2023/05/24 08:50:17;;;;;;;10.50;5.47;;;;;;;;;;4972807;28;20062;-62
2023/05/24 08:52:48;;;;;;;11.00;4.50;;;;;;;;;;4956968;28;20566;-62
2023/05/24 08:55:18;;;;;;;14.73;5.18;;;;;;;;;;4941376;28;20065;-62
2023/05/24 08:57:50;;;;;;;8.98;4.80;;;;;;;;;;4972448;28;20494;-63
2023/05/24 09:00:21;;;;;;;12.98;4.88;;;;;;;;;;4946673;28;20065;-62
2023/05/24 09:02:52;;;;;;;10.75;4.82;;;;;;;;;;4969498;28;20058;-62
2023/05/24 09:05:24;;;;;;;11.52;5.65;;;;;;;;;;4969615;28;20054;-62
2023/05/24 09:07:56;;;;;;;10.27;5.30;;;;;;;;;;4969739;28;20059;-63
2023/05/24 09:10:28;;;;;;;13.82;5.30;;;;;;;;;;4969543;28;20059;-62
2023/05/24 09:13:18;;;;;;;10.20;4.93;;;;;;;;;;4969722;28;20051;-63
2023/05/24 09:15:49;;;;;;;11.95;4.85;;;;;;;;;;4938407;28;20081;-61
2023/05/24 09:18:19;;;;;;;10.40;4.60;;;;;;;;;;4953550;28;20055;-62
2023/05/24 09:20:50;;;;;;;9.98;4.32;;;;;;;;;;4938592;28;20055;-63
2023/05/24 09:23:23;;;;;;;9.88;4.38;;;;;;;;;;4969608;28;20067;-63
2023/05/24 09:25:54;;;;;;;15.70;5.28;;;;;;;;;;4969727;28;20503;-63
2023/05/24 09:28:24;;;;;;;14.02;5.82;;;;;;;;;;4972070;28;20059;-62
2023/05/24 09:31:00;;;;;;;16.38;6.35;;;;;;;;;;4934535;29;20044;-62
2023/05/24 09:33:35;;;;;;;12.98;6.15;;;;;;;;;;4934634;29;20064;-63
2023/05/24 09:36:31;;;;;;;14.73;5.47;;;;;;;;;;4928644;29;20535;-62
2023/05/24 09:39:10;;;;;;;11.25;5.63;;;;;;;;;;4915684;29;20060;-64
2023/05/24 09:41:44;;;;;;;15.07;6.22;;;;;;;;;;4906099;29;20051;-62
2023/05/24 09:44:15;;;;;;;11.82;5.70;;;;;;;;;;4919753;29;20062;-64
2023/05/24 09:46:45;;;;;;;13.40;5.80;;;;;;;;;;4891274;29;20055;-63
2023/05/24 09:49:16;;;;;;;12.88;5.60;;;;;;;;;;4907158;29;20059;-62
2023/05/24 09:51:47;;;;;;;16.02;5.78;;;;;;;;;;4921541;29;20499;-62
2023/05/24 09:54:17;;;;;;;11.55;5.50;;;;;;;;;;4907613;29;20444;-62
2023/05/24 09:56:50;;;;;;;14.40;5.63;;;;;;;;;;4906354;29;20508;-63
2023/05/24 09:59:41;;;;;;;10.73;5.05;;;;;;;;;;4915110;29;20049;-62
2023/05/24 10:02:12;;;;;;;13.90;6.18;;;;;;;;;;4899559;29;20056;-61
2023/05/24 10:04:42;;;;;;;12.38;5.72;;;;;;;;;;4883675;29;20056;-64
2023/05/24 10:07:13;;;;;;;12.38;5.13;;;;;;;;;;4914924;29;20064;-69
2023/05/24 10:09:45;;;;;;;15.32;5.63;;;;;;;;;;4902041;29;20059;-62
2023/05/24 10:12:17;;;;;;;11.70;5.43;;;;;;;;;;4872406;29;20508;-61
2023/05/24 10:14:49;;;;;;;12.15;5.32;;;;;;;;;;4949299;29;20056;-61
2023/05/24 10:17:20;;;;;;;14.73;6.30;;;;;;;;;;4921073;29;20055;-62
2023/05/24 10:19:51;;;;;;;17.08;6.78;;;;;;;;;;4953168;29;20050;-62
2023/05/24 10:22:44;;;;;;;14.98;6.90;;;;;;;;;;4952219;29;20051;-62
2023/05/24 10:25:21;;;;;;;15.77;7.38;;;;;;;;;;4921078;29;20403;-62
2023/05/24 10:27:58;;;;;;;22.35;8.25;;;;;;;;;;4953046;29;20086;-62
2023/05/24 10:30:40;;;;;;;24.05;9.23;;;;;;;;;;4952711;29;20371;-62
2023/05/24 10:33:13;;;;;;;21.63;9.80;;;;;;;;;;4906552;29;20062;-63
2023/05/24 10:35:45;;;;;;;21.30;8.52;;;;;;;;;;4920981;29;20091;-67
2023/05/24 10:38:15;;;;;;;15.95;7.25;;;;;;;;;;4973334;28;20058;-61
2023/05/24 10:40:45;;;;;;;14.43;6.68;;;;;;;;;;4952589;29;20051;-63
2023/05/24 10:43:17;;;;;;;13.75;6.65;;;;;;;;;;4952537;29;20055;-62
2023/05/24 10:45:50;;;;;;;11.85;6.43;;;;;;;;;;4920867;29;20675;-62
2023/05/24 10:48:23;;;;;;;14.18;6.60;;;;;;;;;;4936543;29;20051;-62
2023/05/24 10:50:53;;;;;;;;;;;;;;;;;;4952869;29;20168;-63
2023/05/24 10:53:26;;;;;;;11.23;5.53;;;;;;;;;;4952543;29;19922;-62
2023/05/24 10:56:08;;;;;;;14.00;6.28;;;;;;;;;;4898227;29;20063;-63
2023/05/24 10:59:01;;;;;;;16.92;5.80;;;;;;;;;;4912292;29;20078;-62
2023/05/24 11:01:32;;;;;;;17.00;6.18;;;;;;;;;;4898504;29;20064;-63
2023/05/24 11:04:18;;;;;;;14.57;6.60;;;;;;;;;;4876292;29;20057;-64
2023/05/24 11:07:02;;;;;;;14.63;7.00;;;;;;;;;;4839175;29;20061;-63
2023/05/24 11:09:33;;;;;;;14.98;7.25;;;;;;;;;;4802553;29;20065;-65
2023/05/24 11:12:08;;;;;;;14.98;7.15;;;;;;;;;;4879360;29;20403;-62
2023/05/24 11:14:41;;;;;;;15.57;7.95;;;;;;;;;;4879934;29;20184;-63
2023/05/24 11:17:11;;;;;;;15.40;7.28;;;;;;;;;;4866979;29;20052;-62
2023/05/24 11:19:51;;;;;;;15.68;7.30;;;;;;;;;;4887577;29;20059;-65
2023/05/24 11:22:25;;;;;;;15.40;7.88;;;;;;;;;;4903118;29;20217;-64
2023/05/24 11:24:58;;;;;;;14.75;6.97;;;;;;;;;;4902165;29;20048;-64
2023/05/24 11:27:31;;;;;;;17.27;8.38;;;;;;;;;;4911032;29;20067;-63
2023/05/24 11:30:15;;;;;;;18.67;8.13;;;;;;;;;;4874840;29;20061;-64
2023/05/24 11:32:49;;;;;;;16.05;7.63;;;;;;;;;;4869350;29;20060;-66
2023/05/24 11:35:21;;;;;;;16.17;7.90;;;;;;;;;;4851306;29;20057;-63
2023/05/24 11:37:52;;;;;;;15.65;8.25;;;;;;;;;;4893964;29;20468;-63
2023/05/24 11:40:23;;;;;;;15.13;8.13;;;;;;;;;;4886167;29;20064;-63
2023/05/24 11:42:54;;;;;;;17.23;8.10;;;;;;;;;;4910047;29;20509;-63
2023/05/24 11:45:25;;;;;;;21.20;8.27;;;;;;;;;;4928295;29;20051;-64
2023/05/24 11:47:55;;;;;;;14.65;7.90;;;;;;;;;;4932185;29;20067;-65
2023/05/24 11:50:27;;;;;;;15.90;8.18;;;;;;;;;;4931725;29;20059;-61
2023/05/24 11:53:13;;;;;;;14.57;8.00;;;;;;;;;;4932282;29;20350;-61
2023/05/24 11:55:43;;;;;;;26.15;12.25;;;;;;;;;;4932342;29;20068;-61
2023/05/24 11:58:21;;;;;;;17.33;9.07;;;;;;;;;;4948629;29;20055;-62
2023/05/24 12:01:04;;;;;;;22.83;10.25;;;;;;;;;;4950581;29;20066;-62
2023/05/24 12:03:34;;;;;;;22.05;11.93;;;;;;;;;;4931569;29;20600;-61
2023/05/24 12:06:43;;;;;;;27.00;10.02;;;;;;;;;;4915942;29;20052;-63
2023/05/24 12:09:16;;;;;;;19.38;10.43;;;;;;;;;;4925492;28;20058;-63
2023/05/24 12:11:49;;;;;;;15.35;7.55;;;;;;;;;;4970184;28;20495;-64
2023/05/24 12:14:33;;;;;;;13.15;7.47;;;;;;;;;;4906538;28;20558;-62
2023/05/24 12:17:03;;;;;;;15.10;7.80;;;;;;;;;;4915515;29;20051;-63
2023/05/24 12:19:34;;;;;;;15.18;6.43;;;;;;;;;;4934184;29;20059;-62
2023/05/24 12:22:06;;;;;;;16.20;6.50;;;;;;;;;;4932912;29;20056;-62
2023/05/24 12:24:38;;;;;;;12.73;5.53;;;;;;;;;;4848651;29;20064;-62
2023/05/24 12:27:10;;;;;;;12.18;6.10;;;;;;;;;;4873812;29;20429;-62
2023/05/24 12:29:48;;;;;;;12.45;5.80;;;;;;;;;;4879622;29;20054;-62
2023/05/24 12:32:18;;;;;;;10.73;5.25;;;;;;;;;;4912230;29;20059;-63
2023/05/24 12:34:49;;;;;;;10.73;5.45;;;;;;;;;;4912054;29;20059;-62
2023/05/24 12:37:20;;;;;;;13.48;6.90;;;;;;;;;;4874662;29;20469;-64
2023/05/24 12:39:51;;;;;;;11.23;5.30;;;;;;;;;;4774225;29;20081;-63
2023/05/24 12:42:24;;;;;;;11.18;5.18;;;;;;;;;;4819220;29;20511;-64
2023/05/24 12:45:16;;;;;;;12.07;5.97;;;;;;;;;;4782988;30;20055;-63
2023/05/24 12:47:48;;;;;;;12.30;7.00;;;;;;;;;;4782897;30;20051;-63
2023/05/24 12:50:20;;;;;;;27.08;18.95;;;;;;;;;;4783697;30;20051;-65
2023/05/24 12:52:52;;;;;;;25.48;14.95;;;;;;;;;;4783139;30;20100;-63
2023/05/24 12:55:27;;;;;;;15.65;8.45;;;;;;;;;;4796109;29;20067;-63
2023/05/24 12:58:01;;;;;;;16.90;8.75;;;;;;;;;;4784537;29;20063;-64
2023/05/24 13:00:32;;;;;;;25.80;12.45;;;;;;;;;;4785255;29;20067;-63
2023/05/24 13:03:03;;;;;;;45.17;21.23;;;;;;;;;;4813792;29;20061;-64
2023/05/24 13:05:48;;;;;;;21.83;11.02;;;;;;;;;;4841079;29;20062;-64
2023/05/24 13:08:19;;;;;;;71.10;37.70;;;;;;;;;;4843207;29;20065;-64
2023/05/24 13:10:49;;;;;;;15.07;7.40;;;;;;;;;;4841120;29;20332;-63
2023/05/24 13:13:39;;;;;;;14.13;5.50;;;;;;;;;;4841192;29;20074;-63
2023/05/24 13:16:10;;;;;;;15.63;7.75;;;;;;;;;;4877441;29;20060;-64
2023/05/24 13:18:40;;;;;;;12.13;5.93;;;;;;;;;;4870994;29;20060;-62
2023/05/24 13:21:11;;;;;;;10.88;6.00;;;;;;;;;;4915716;29;20064;-63
2023/05/24 13:23:43;;;;;;;12.50;5.25;;;;;;;;;;4900423;29;20594;-63
2023/05/24 13:26:13;;;;;;;7.05;3.20;;;;;;;;;;4915586;29;20071;-63
2023/05/24 13:28:44;;;;;;;5.53;2.65;;;;;;;;;;4915806;29;20130;-63
2023/05/24 13:31:35;;;;;;;7.32;2.92;;;;;;;;;;4915402;29;20056;-63
2023/05/24 13:34:24;;;;;;;7.32;2.63;;;;;;;;;;4913660;29;20056;-62
2023/05/24 13:36:55;;;;;;;11.82;4.05;;;;;;;;;;4929454;29;20405;-62
2023/05/24 13:39:26;;;;;;;7.05;2.40;;;;;;;;;;4915871;28;20060;-62
2023/05/24 13:41:59;;;;;;;7.80;3.50;;;;;;;;;;4953224;28;20403;-62
2023/05/24 13:44:31;;;;;;;6.97;2.50;;;;;;;;;;4994309;28;20054;-62
2023/05/24 13:47:01;;;;;;;9.15;3.38;;;;;;;;;;4944340;28;20042;-62
2023/05/24 13:49:32;;;;;;;9.15;6.57;;;;;;;;;;4963278;28;20525;-64
2023/05/24 13:52:03;;;;;;;13.55;3.65;;;;;;;;;;5012681;28;20057;-63
2023/05/24 13:54:33;;;;;;;16.85;9.13;;;;;;;;;;4983282;28;20409;-62
2023/05/24 13:57:05;;;;;;;4.30;2.05;;;;;;;;;;5031266;28;20048;-63
2023/05/24 13:59:35;;;;;;;6.18;3.00;;;;;;;;;;4946756;28;20057;-64
2023/05/24 14:02:06;;;;;;;8.73;2.30;;;;;;;;;;5034176;28;20045;-62
2023/05/24 14:04:37;;;;;;;9.75;3.05;;;;;;;;;;5033671;28;20049;-63
2023/05/24 14:07:08;;;;;;;6.95;3.03;;;;;;;;;;5033882;28;20086;-63
2023/05/24 14:09:38;;;;;;;10.75;6.35;;;;;;;;;;4988650;28;20046;-64
2023/05/24 14:12:09;;;;;;;7.15;2.53;;;;;;;;;;4991021;28;20049;-63
2023/05/24 14:14:39;;;;;;;11.05;3.30;;;;;;;;;;5032867;28;20056;-63
2023/05/24 14:17:12;;;;;;;5.38;2.17;;;;;;;;;;5010491;28;20053;-62
2023/05/24 14:19:43;;;;;;;5.85;2.90;;;;;;;;;;4985182;28;20057;-62
2023/05/24 14:22:13;;;;;;;6.13;2.10;;;;;;;;;;4897707;28;20061;-63
2023/05/24 14:24:43;;;;;;;6.30;2.70;;;;;;;;;;4975596;28;20062;-63
2023/05/24 14:27:14;;;;;;;7.35;3.15;;;;;;;;;;4991455;28;20417;-63
2023/05/24 14:29:46;;;;;;;5.35;2.50;;;;;;;;;;4991319;28;20062;-63
2023/05/24 14:32:16;;;;;;;4.88;2.40;;;;;;;;;;4959480;28;20213;-63
2023/05/24 14:34:46;;;;;;;8.43;2.50;;;;;;;;;;4991341;28;20076;-63
2023/05/24 14:37:19;;;;;;;4.70;1.98;;;;;;;;;;4990997;28;20043;-62
2023/05/24 14:40:04;;;;;;;6.65;2.00;;;;;;;;;;4969903;28;20058;-63
2023/05/24 14:42:35;;;;;;;7.28;2.10;;;;;;;;;;4923809;28;20047;-63
2023/05/24 14:45:06;;;;;;;7.97;2.80;;;;;;;;;;4978465;28;20522;-63
2023/05/24 14:47:37;;;;;;;4.05;2.20;;;;;;;;;;4990863;28;20058;-63
2023/05/24 14:50:08;;;;;;;4.30;2.25;;;;;;;;;;4958634;28;20066;-63
2023/05/24 14:52:38;;;;;;;4.93;1.83;;;;;;;;;;4990823;28;20054;-63
2023/05/24 14:55:28;;;;;;;5.72;1.90;;;;;;;;;;4920284;29;20082;-64
2023/05/24 14:57:59;;;;;;;4.88;1.55;;;;;;;;;;4932406;29;20055;-63
2023/05/24 15:00:29;;;;;;;3.75;1.65;;;;;;;;;;4979682;28;20109;-62
2023/05/24 15:02:59;;;;;;;4.85;2.10;;;;;;;;;;4990723;28;20054;-63
2023/05/24 15:05:30;;;;;;;5.38;1.98;;;;;;;;;;4974675;28;20646;-63
2023/05/24 15:08:02;;;;;;;4.97;1.80;;;;;;;;;;4958176;28;20073;-62